createdAt,value
2016-12-19T00:01:03.089Z,5.02
2016-12-19T00:02:13.831Z,4.94
2016-12-19T00:03:24.575Z,4.94
2016-12-19T00:04:35.299Z,5
2016-12-19T00:05:46.038Z,5.04
2016-12-19T00:06:56.764Z,5.07
2016-12-19T00:08:07.486Z,5.01
2016-12-19T00:09:18.230Z,5.01
2016-12-19T00:10:28.971Z,5.01
2016-12-19T00:11:39.722Z,5.07
2016-12-19T00:12:50.468Z,4.98
2016-12-19T00:14:01.210Z,5.04
2016-12-19T00:15:11.935Z,4.97
2016-12-19T00:16:22.652Z,5.01
2016-12-19T00:17:33.378Z,5
2016-12-19T00:18:44.098Z,4.97
2016-12-19T00:19:54.826Z,4.95
2016-12-19T00:21:05.561Z,4.95
2016-12-19T00:22:16.303Z,4.95
2016-12-19T00:23:27.032Z,4.94
2016-12-19T00:24:37.749Z,4.89
2016-12-19T00:25:48.499Z,4.95
2016-12-19T00:26:59.245Z,4.94
2016-12-19T00:28:09.987Z,4.95
2016-12-19T00:29:20.712Z,4.95
2016-12-19T00:30:31.433Z,4.95
2016-12-19T00:31:42.183Z,5.01
2016-12-19T00:32:52.900Z,4.95
2016-12-19T00:34:03.642Z,4.94
2016-12-19T00:35:14.392Z,5
2016-12-19T00:36:25.107Z,4.95
2016-12-19T00:37:35.812Z,5.08
2016-12-19T00:38:46.534Z,5.01
2016-12-19T00:39:57.301Z,5.02
2016-12-19T00:41:08.053Z,5.04
2016-12-19T00:42:18.789Z,5.04
2016-12-19T00:43:29.514Z,5.05
2016-12-19T00:44:40.256Z,4.95
2016-12-19T00:45:50.974Z,5
2016-12-19T00:47:01.719Z,5.08
2016-12-19T00:48:12.451Z,5.01
2016-12-19T00:49:23.190Z,5.01
2016-12-19T00:50:33.919Z,4.98
2016-12-19T00:51:44.641Z,5.02
2016-12-19T00:52:55.388Z,5.05
2016-12-19T00:54:06.120Z,5
2016-12-19T00:55:16.877Z,4.94
2016-12-19T00:56:27.616Z,5.02
2016-12-19T00:57:38.320Z,5
2016-12-19T00:58:49.037Z,4.98
2016-12-19T00:59:59.758Z,5.1
2016-12-19T01:01:10.496Z,4.97
2016-12-19T01:02:21.243Z,4.92
2016-12-19T01:03:31.991Z,4.95
2016-12-19T01:04:42.713Z,4.95
2016-12-19T01:05:53.413Z,5
2016-12-19T01:07:04.137Z,4.95
2016-12-19T01:08:14.873Z,4.9
2016-12-19T01:09:25.603Z,4.94
2016-12-19T01:10:36.376Z,5.02
2016-12-19T01:11:47.094Z,4.92
2016-12-19T01:12:57.814Z,4.94
2016-12-19T01:14:08.539Z,4.94
2016-12-19T01:15:19.281Z,4.94
2016-12-19T01:16:29.981Z,4.9
2016-12-19T01:17:40.724Z,4.94
2016-12-19T01:18:51.465Z,4.92
2016-12-19T01:20:02.211Z,4.98
2016-12-19T01:21:12.915Z,4.97
2016-12-19T01:22:23.635Z,4.9
2016-12-19T01:23:34.353Z,4.89
2016-12-19T01:24:45.066Z,4.83
2016-12-19T01:25:55.795Z,4.86
2016-12-19T01:27:07.170Z,4.89
2016-12-19T01:28:17.872Z,4.95
2016-12-19T01:29:28.608Z,4.86
2016-12-19T01:30:39.350Z,4.87
2016-12-19T01:31:50.071Z,4.9
2016-12-19T01:33:00.827Z,4.97
2016-12-19T01:34:11.564Z,4.98
2016-12-19T01:35:22.589Z,4.9
2016-12-19T01:36:33.335Z,4.9
2016-12-19T01:37:44.050Z,4.9
2016-12-19T01:38:54.796Z,4.95
2016-12-19T01:40:05.540Z,4.95
2016-12-19T01:41:16.292Z,4.95
2016-12-19T01:42:27.035Z,4.94
2016-12-19T01:43:37.763Z,4.97
2016-12-19T01:44:48.499Z,4.89
2016-12-19T01:45:59.223Z,4.9
2016-12-19T01:47:09.928Z,4.86
2016-12-19T01:48:20.671Z,4.84
2016-12-19T01:49:31.397Z,4.86
2016-12-19T01:50:42.138Z,4.86
2016-12-19T01:51:52.877Z,4.86
2016-12-19T01:53:03.578Z,4.94
2016-12-19T01:54:14.277Z,4.9
2016-12-19T01:55:25.020Z,4.95
2016-12-19T01:56:36.044Z,4.89
2016-12-19T01:57:46.740Z,4.9
2016-12-19T01:58:57.504Z,4.94
2016-12-19T02:00:08.249Z,4.9
2016-12-19T02:01:18.996Z,4.95
2016-12-19T02:02:29.725Z,4.9
2016-12-19T02:03:40.469Z,4.92
2016-12-19T02:04:51.216Z,4.95
2016-12-19T02:06:01.950Z,4.92
2016-12-19T02:07:12.684Z,4.97
2016-12-19T02:08:23.422Z,4.92
2016-12-19T02:09:34.171Z,4.94
2016-12-19T02:10:44.917Z,4.92
2016-12-19T02:11:55.663Z,4.92
2016-12-19T02:13:06.385Z,4.97
2016-12-19T02:14:17.122Z,4.92
2016-12-19T02:15:27.851Z,4.92
2016-12-19T02:16:38.590Z,4.92
2016-12-19T02:17:49.295Z,4.97
2016-12-19T02:19:00.038Z,4.95
2016-12-19T02:20:10.778Z,4.97
2016-12-19T02:21:21.486Z,4.94
2016-12-19T02:22:32.220Z,4.94
2016-12-19T02:23:42.950Z,4.95
2016-12-19T02:24:53.697Z,4.95
2016-12-19T02:26:04.720Z,4.94
2016-12-19T02:27:15.438Z,4.87
2016-12-19T02:28:26.150Z,4.83
2016-12-19T02:29:36.871Z,4.84
2016-12-19T02:30:47.595Z,4.84
2016-12-19T02:31:58.295Z,4.84
2016-12-19T02:33:09.037Z,4.9
2016-12-19T02:34:19.766Z,4.84
2016-12-19T02:35:30.508Z,4.95
2016-12-19T02:36:41.259Z,4.86
2016-12-19T02:37:51.993Z,4.86
2016-12-19T02:39:02.700Z,4.84
2016-12-19T02:40:13.417Z,4.9
2016-12-19T02:41:24.159Z,4.89
2016-12-19T02:42:34.905Z,4.89
2016-12-19T02:43:45.623Z,4.89
2016-12-19T02:44:56.357Z,4.82
2016-12-19T02:46:07.077Z,4.74
2016-12-19T02:47:17.814Z,4.71
2016-12-19T02:48:28.543Z,4.75
2016-12-19T02:49:39.278Z,4.75
2016-12-19T02:50:50.011Z,4.74
2016-12-19T02:52:00.722Z,4.75
2016-12-19T02:53:11.454Z,4.75
2016-12-19T02:54:22.211Z,4.74
2016-12-19T02:55:32.940Z,4.75
2016-12-19T02:56:43.653Z,4.82
2016-12-19T02:57:54.386Z,4.87
2016-12-19T02:59:05.127Z,4.87
2016-12-19T03:00:15.875Z,4.84
2016-12-19T03:01:26.649Z,4.87
2016-12-19T03:02:37.367Z,4.82
2016-12-19T03:03:48.108Z,4.7
2016-12-19T03:04:58.838Z,4.74
2016-12-19T03:06:09.871Z,4.79
2016-12-19T03:07:20.571Z,4.83
2016-12-19T03:08:31.300Z,4.71
2016-12-19T03:09:42.013Z,4.71
2016-12-19T03:10:52.759Z,4.74
2016-12-19T03:12:03.504Z,4.7
2016-12-19T03:13:14.230Z,4.75
2016-12-19T03:14:24.971Z,4.76
2016-12-19T03:15:35.717Z,4.7
2016-12-19T03:16:46.489Z,4.76
2016-12-19T03:17:57.231Z,4.76
2016-12-19T03:19:07.988Z,4.74
2016-12-19T03:20:18.734Z,4.76
2016-12-19T03:21:29.482Z,4.75
2016-12-19T03:22:40.201Z,4.7
2016-12-19T03:23:50.894Z,4.74
2016-12-19T03:25:01.894Z,4.66
2016-12-19T03:26:12.937Z,4.7
2016-12-19T03:27:23.660Z,4.7
2016-12-19T03:28:34.382Z,4.74
2016-12-19T03:29:45.128Z,4.58
2016-12-19T03:30:56.166Z,4.6
2016-12-19T03:32:06.892Z,4.61
2016-12-19T03:33:17.632Z,4.64
2016-12-19T03:34:28.357Z,4.61
2016-12-19T03:35:39.070Z,4.64
2016-12-19T03:36:49.795Z,4.6
2016-12-19T03:38:00.514Z,4.63
2016-12-19T03:39:11.242Z,4.57
2016-12-19T03:40:21.962Z,4.63
2016-12-19T03:41:32.704Z,4.63
2016-12-19T03:42:43.459Z,4.63
2016-12-19T03:43:54.196Z,4.71
2016-12-19T03:45:04.926Z,4.64
2016-12-19T03:46:15.663Z,4.71
2016-12-19T03:47:26.392Z,4.67
2016-12-19T03:48:37.106Z,4.7
2016-12-19T03:49:47.858Z,4.67
2016-12-19T03:50:58.606Z,4.67
2016-12-19T03:52:09.347Z,4.67
2016-12-19T03:53:20.065Z,4.75
2016-12-19T03:54:30.808Z,4.7
2016-12-19T03:55:41.530Z,4.64
2016-12-19T03:56:52.252Z,4.76
2016-12-19T03:58:02.995Z,4.74
2016-12-19T03:59:13.723Z,4.68
2016-12-19T04:00:24.450Z,4.79
2016-12-19T04:01:35.170Z,4.78
2016-12-19T04:02:45.939Z,4.79
2016-12-19T04:03:56.674Z,4.83
2016-12-19T04:05:07.382Z,4.76
2016-12-19T04:06:18.121Z,4.75
2016-12-19T04:07:28.870Z,4.76
2016-12-19T04:08:39.616Z,4.67
2016-12-19T04:09:50.358Z,4.78
2016-12-19T04:11:01.108Z,4.75
2016-12-19T04:12:11.850Z,4.74
2016-12-19T04:13:22.575Z,4.76
2016-12-19T04:14:33.275Z,4.74
2016-12-19T04:15:43.969Z,4.71
2016-12-19T04:16:54.685Z,4.74
2016-12-19T04:18:05.402Z,4.68
2016-12-19T04:19:16.148Z,4.74
2016-12-19T04:20:26.898Z,4.74
2016-12-19T04:21:37.624Z,4.7
2016-12-19T04:22:48.345Z,4.74
2016-12-19T04:23:59.085Z,4.78
2016-12-19T04:25:09.806Z,4.78
2016-12-19T04:26:20.551Z,4.74
2016-12-19T04:27:31.305Z,4.71
2016-12-19T04:28:42.025Z,4.82
2016-12-19T04:29:52.765Z,4.68
2016-12-19T04:31:03.486Z,4.75
2016-12-19T04:32:14.192Z,4.76
2016-12-19T04:33:24.903Z,4.75
2016-12-19T04:34:35.646Z,4.68
2016-12-19T04:35:46.370Z,4.71
2016-12-19T04:36:57.116Z,4.76
2016-12-19T04:38:07.838Z,4.74
2016-12-19T04:39:18.883Z,4.76
2016-12-19T04:40:29.600Z,4.84
2016-12-19T04:41:40.309Z,4.86
2016-12-19T04:42:51.025Z,4.84
2016-12-19T04:44:01.739Z,4.86
2016-12-19T04:45:12.483Z,4.86
2016-12-19T04:46:23.209Z,4.82
2016-12-19T04:47:33.952Z,4.87
2016-12-19T04:48:44.686Z,4.82
2016-12-19T04:49:55.418Z,4.71
2016-12-19T04:51:06.142Z,4.76
2016-12-19T04:52:16.894Z,4.82
2016-12-19T04:53:27.639Z,4.75
2016-12-19T04:54:38.363Z,4.71
2016-12-19T04:55:49.099Z,4.79
2016-12-19T04:56:59.823Z,4.74
2016-12-19T04:58:10.553Z,4.82
2016-12-19T04:59:21.315Z,4.79
2016-12-19T05:00:32.036Z,4.84
2016-12-19T05:01:42.754Z,4.84
2016-12-19T05:02:53.489Z,4.75
2016-12-19T05:04:04.250Z,4.86
2016-12-19T05:05:14.977Z,4.87
2016-12-19T05:06:25.702Z,4.79
2016-12-19T05:07:36.418Z,4.74
2016-12-19T05:08:47.183Z,4.7
2016-12-19T05:09:57.908Z,4.75
2016-12-19T05:11:08.950Z,4.82
2016-12-19T05:12:19.650Z,4.75
2016-12-19T05:13:30.376Z,4.76
2016-12-19T05:14:41.119Z,4.71
2016-12-19T05:15:51.843Z,4.75
2016-12-19T05:17:02.588Z,4.67
2016-12-19T05:18:13.335Z,4.74
2016-12-19T05:19:24.077Z,4.75
2016-12-19T05:20:34.790Z,4.7
2016-12-19T05:21:45.518Z,4.61
2016-12-19T05:22:56.282Z,4.7
2016-12-19T05:24:07.315Z,4.7
2016-12-19T05:25:18.051Z,4.71
2016-12-19T05:26:28.803Z,4.71
2016-12-19T05:27:39.524Z,4.67
2016-12-19T05:28:50.297Z,4.7
2016-12-19T05:30:01.009Z,4.76
2016-12-19T05:31:11.717Z,4.71
2016-12-19T05:32:22.450Z,4.74
2016-12-19T05:33:33.183Z,4.7
2016-12-19T05:34:43.917Z,4.75
2016-12-19T05:35:54.666Z,4.76
2016-12-19T05:37:05.388Z,4.74
2016-12-19T05:38:16.122Z,4.68
2016-12-19T05:39:26.854Z,4.7
2016-12-19T05:40:37.621Z,4.68
2016-12-19T05:41:48.368Z,4.7
2016-12-19T05:42:59.076Z,4.79
2016-12-19T05:44:10.092Z,4.7
2016-12-19T05:45:20.807Z,4.66
2016-12-19T05:46:31.542Z,4.75
2016-12-19T05:47:42.277Z,4.76
2016-12-19T05:48:53.006Z,4.7
2016-12-19T05:50:03.740Z,4.7
2016-12-19T05:51:14.486Z,4.82
2016-12-19T05:52:25.218Z,4.76
2016-12-19T05:53:35.956Z,4.74
2016-12-19T05:54:46.709Z,4.75
2016-12-19T05:55:57.433Z,4.7
2016-12-19T05:57:08.147Z,4.71
2016-12-19T05:58:18.889Z,4.7
2016-12-19T05:59:29.615Z,4.63
2016-12-19T06:00:40.330Z,4.58
2016-12-19T06:01:51.049Z,4.6
2016-12-19T06:03:01.787Z,4.64
2016-12-19T06:04:12.523Z,4.63
2016-12-19T06:05:23.237Z,4.61
2016-12-19T06:06:33.960Z,4.63
2016-12-19T06:07:44.678Z,4.66
2016-12-19T06:08:55.424Z,4.61
2016-12-19T06:10:06.130Z,4.63
2016-12-19T06:11:16.866Z,4.64
2016-12-19T06:12:27.588Z,4.58
2016-12-19T06:13:38.341Z,4.61
2016-12-19T06:14:49.086Z,4.63
2016-12-19T06:15:59.804Z,4.6
2016-12-19T06:17:10.529Z,4.52
2016-12-19T06:18:21.245Z,4.58
2016-12-19T06:19:31.973Z,4.61
2016-12-19T06:20:42.712Z,4.64
2016-12-19T06:21:53.483Z,4.6
2016-12-19T06:23:04.225Z,4.6
2016-12-19T06:24:14.946Z,4.63
2016-12-19T06:25:25.675Z,4.61
2016-12-19T06:26:36.388Z,4.64
2016-12-19T06:27:47.113Z,4.66
2016-12-19T06:28:57.862Z,4.6
2016-12-19T06:30:08.585Z,4.63
2016-12-19T06:31:19.322Z,4.68
2016-12-19T06:32:30.045Z,4.63
2016-12-19T06:33:40.805Z,4.61
2016-12-19T06:34:51.518Z,4.5
2016-12-19T06:36:02.239Z,4.64
2016-12-19T06:37:12.964Z,4.63
2016-12-19T06:38:23.677Z,4.52
2016-12-19T06:39:34.397Z,4.6
2016-12-19T06:40:45.115Z,4.56
2016-12-19T06:41:55.847Z,4.6
2016-12-19T06:43:06.569Z,4.6
2016-12-19T06:44:17.336Z,4.61
2016-12-19T06:45:28.081Z,4.48
2016-12-19T06:46:38.783Z,4.67
2016-12-19T06:47:49.520Z,4.57
2016-12-19T06:49:00.612Z,4.56
2016-12-19T06:50:11.324Z,4.56
2016-12-19T06:51:22.037Z,4.57
2016-12-19T06:52:32.762Z,4.57
2016-12-19T06:53:43.496Z,4.5
2016-12-19T06:54:54.204Z,4.49
2016-12-19T06:56:05.238Z,4.46
2016-12-19T06:57:15.971Z,4.58
2016-12-19T06:58:26.709Z,4.48
2016-12-19T06:59:37.433Z,4.53
2016-12-19T07:00:48.150Z,4.57
2016-12-19T07:01:58.867Z,4.49
2016-12-19T07:03:09.618Z,4.56
2016-12-19T07:04:20.338Z,4.5
2016-12-19T07:05:31.041Z,4.6
2016-12-19T07:06:41.752Z,4.53
2016-12-19T07:07:52.477Z,4.61
2016-12-19T07:09:03.201Z,4.58
2016-12-19T07:10:13.944Z,4.57
2016-12-19T07:11:24.669Z,4.58
2016-12-19T07:12:35.357Z,4.6
2016-12-19T07:13:46.088Z,4.64
2016-12-19T07:14:56.800Z,4.61
2016-12-19T07:16:07.529Z,4.66
2016-12-19T07:17:18.255Z,4.64
2016-12-19T07:18:28.991Z,4.64
2016-12-19T07:19:39.737Z,4.64
2016-12-19T07:20:50.466Z,4.6
2016-12-19T07:22:01.211Z,4.6
2016-12-19T07:23:11.934Z,4.61
2016-12-19T07:24:22.667Z,4.58
2016-12-19T07:25:33.402Z,4.6
2016-12-19T07:26:44.134Z,4.64
2016-12-19T07:27:54.855Z,4.61
2016-12-19T07:29:05.580Z,4.6
2016-12-19T07:30:16.337Z,4.6
2016-12-19T07:31:27.130Z,4.6
2016-12-19T07:32:37.847Z,4.58
2016-12-19T07:33:48.595Z,4.61
2016-12-19T07:34:59.307Z,4.57
2016-12-19T07:36:10.060Z,4.66
2016-12-19T07:37:20.774Z,4.58
2016-12-19T07:38:31.531Z,4.64
2016-12-19T07:39:42.270Z,4.64
2016-12-19T07:40:52.990Z,4.6
2016-12-19T07:42:03.694Z,4.64
2016-12-19T07:43:14.416Z,4.68
2016-12-19T07:44:25.157Z,4.7
2016-12-19T07:45:35.881Z,4.68
2016-12-19T07:46:46.624Z,4.7
2016-12-19T07:47:57.338Z,4.57
2016-12-19T07:49:08.092Z,4.6
2016-12-19T07:50:18.804Z,4.76
2016-12-19T07:51:29.538Z,4.76
2016-12-19T07:52:40.271Z,4.68
2016-12-19T07:53:51.000Z,4.71
2016-12-19T07:55:01.727Z,4.71
2016-12-19T07:56:12.760Z,4.75
2016-12-19T07:57:23.484Z,4.7
2016-12-19T07:58:34.202Z,4.71
2016-12-19T07:59:44.960Z,4.68
2016-12-19T08:00:55.694Z,4.66
2016-12-19T08:02:06.425Z,4.75
2016-12-19T08:03:17.147Z,4.71
2016-12-19T08:04:27.918Z,4.75
2016-12-19T08:05:38.657Z,4.78
2016-12-19T08:06:49.374Z,4.71
2016-12-19T08:08:00.095Z,4.82
2016-12-19T08:09:10.816Z,4.71
2016-12-19T08:10:21.545Z,4.9
2016-12-19T08:11:32.267Z,4.94
2016-12-19T08:12:42.979Z,4.9
2016-12-19T08:13:53.733Z,4.95
2016-12-19T08:15:04.478Z,4.9
2016-12-19T08:16:15.191Z,4.94
2016-12-19T08:17:25.913Z,4.9
2016-12-19T08:18:36.670Z,4.94
2016-12-19T08:19:47.413Z,4.92
2016-12-19T08:20:58.162Z,4.95
2016-12-19T08:22:08.910Z,4.95
2016-12-19T08:23:19.943Z,4.92
2016-12-19T08:24:30.693Z,4.97
2016-12-19T08:25:41.424Z,5
2016-12-19T08:26:52.159Z,5.01
2016-12-19T08:28:03.234Z,4.95
2016-12-19T08:29:13.951Z,5.04
2016-12-19T08:30:24.705Z,5.04
2016-12-19T08:31:35.424Z,5.05
2016-12-19T08:32:46.173Z,5.05
2016-12-19T08:33:56.916Z,5.05
2016-12-19T08:35:07.632Z,5.08
2016-12-19T08:36:18.353Z,5.1
2016-12-19T08:37:29.082Z,5.07
2016-12-19T08:38:39.804Z,5.13
2016-12-19T08:39:50.537Z,5.15
2016-12-19T08:41:01.283Z,5.13
2016-12-19T08:42:12.014Z,5.16
2016-12-19T08:43:22.729Z,5.13
2016-12-19T08:44:33.478Z,5.16
2016-12-19T08:45:44.220Z,5.16
2016-12-19T08:46:54.966Z,5.2
2016-12-19T08:48:05.695Z,5.19
2016-12-19T08:49:16.437Z,5.19
2016-12-19T08:50:27.174Z,5.16
2016-12-19T08:51:37.895Z,5.16
2016-12-19T08:52:48.653Z,5.08
2016-12-19T08:53:59.398Z,5.15
2016-12-19T08:55:10.120Z,5.13
2016-12-19T08:56:20.858Z,5.16
2016-12-19T08:57:31.600Z,5.13
2016-12-19T08:58:42.350Z,5.18
2016-12-19T08:59:53.051Z,5.12
2016-12-19T09:01:03.798Z,5.19
2016-12-19T09:02:14.537Z,5.16
2016-12-19T09:03:25.255Z,5.2
2016-12-19T09:04:36.003Z,5.2
2016-12-19T09:05:46.734Z,5.28
2016-12-19T09:06:57.491Z,5.28
2016-12-19T09:08:08.248Z,5.22
2016-12-19T09:09:19.259Z,5.18
2016-12-19T09:10:30.007Z,5.28
2016-12-19T09:11:40.764Z,5.33
2016-12-19T09:12:51.503Z,5.2
2016-12-19T09:14:02.227Z,5.23
2016-12-19T09:15:12.947Z,5.33
2016-12-19T09:16:23.691Z,5.25
2016-12-19T09:17:34.379Z,5.33
2016-12-19T09:18:45.130Z,5.36
2016-12-19T09:19:55.898Z,5.36
2016-12-19T09:21:06.644Z,5.41
2016-12-19T09:22:17.395Z,5.38
2016-12-19T09:23:28.116Z,5.33
2016-12-19T09:24:38.832Z,5.38
2016-12-19T09:25:49.562Z,5.37
2016-12-19T09:27:00.300Z,5.33
2016-12-19T09:28:11.046Z,5.41
2016-12-19T09:29:21.776Z,5.44
2016-12-19T09:30:32.510Z,5.44
2016-12-19T09:31:43.288Z,5.51
2016-12-19T09:32:54.009Z,5.43
2016-12-19T09:34:04.734Z,5.46
2016-12-19T09:35:15.794Z,5.46
2016-12-19T09:36:26.826Z,5.61
2016-12-19T09:37:37.560Z,5.52
2016-12-19T09:38:48.318Z,5.58
2016-12-19T09:39:59.364Z,5.58
2016-12-19T09:41:10.103Z,5.51
2016-12-19T09:42:20.848Z,5.46
2016-12-19T09:43:31.569Z,5.61
2016-12-19T09:44:42.312Z,5.58
2016-12-19T09:45:53.019Z,5.61
2016-12-19T09:47:03.713Z,5.43
2016-12-19T09:48:14.434Z,5.44
2016-12-19T09:49:25.480Z,5.58
2016-12-19T09:50:36.203Z,5.49
2016-12-19T09:51:46.921Z,5.61
2016-12-19T09:52:57.646Z,5.65
2016-12-19T09:54:08.367Z,5.56
2016-12-19T09:55:19.086Z,5.58
2016-12-19T09:56:29.806Z,5.58
2016-12-19T09:57:40.519Z,5.69
2016-12-19T09:58:51.269Z,5.59
2016-12-19T10:00:01.986Z,5.59
2016-12-19T10:01:12.691Z,5.56
2016-12-19T10:02:23.413Z,5.64
2016-12-19T10:03:34.149Z,5.67
2016-12-19T10:04:44.903Z,5.64
2016-12-19T10:05:55.628Z,5.64
2016-12-19T10:07:06.365Z,5.52
2016-12-19T10:08:17.109Z,5.65
2016-12-19T10:09:27.859Z,5.67
2016-12-19T10:10:38.579Z,5.64
2016-12-19T10:11:49.304Z,5.61
2016-12-19T10:13:00.028Z,5.56
2016-12-19T10:14:10.750Z,5.62
2016-12-19T10:15:21.471Z,5.67
2016-12-19T10:16:32.172Z,5.61
2016-12-19T10:17:42.901Z,5.61
2016-12-19T10:18:53.647Z,5.58
2016-12-19T10:20:04.394Z,5.64
2016-12-19T10:21:15.126Z,5.65
2016-12-19T10:22:25.862Z,5.64
2016-12-19T10:23:36.566Z,5.62
2016-12-19T10:24:47.282Z,5.69
2016-12-19T10:25:58.053Z,5.69
2016-12-19T10:27:08.799Z,5.65
2016-12-19T10:28:19.519Z,5.64
2016-12-19T10:29:31.190Z,5.65
2016-12-19T10:30:41.908Z,5.67
2016-12-19T10:31:52.641Z,5.72
2016-12-19T10:33:03.379Z,5.67
2016-12-19T10:34:14.129Z,5.64
2016-12-19T10:35:24.857Z,5.67
2016-12-19T10:36:35.921Z,5.65
2016-12-19T10:37:46.646Z,5.64
2016-12-19T10:38:57.380Z,5.76
2016-12-19T10:40:08.112Z,5.64
2016-12-19T10:41:18.859Z,5.59
2016-12-19T10:42:29.605Z,5.62
2016-12-19T10:43:40.340Z,5.59
2016-12-19T10:44:51.091Z,5.61
2016-12-19T10:46:01.817Z,5.64
2016-12-19T10:47:12.565Z,5.73
2016-12-19T10:48:23.283Z,5.8
2016-12-19T10:49:33.999Z,5.81
2016-12-19T10:50:45.042Z,5.74
2016-12-19T10:51:55.765Z,5.77
2016-12-19T10:53:06.498Z,5.83
2016-12-19T10:54:17.211Z,5.84
2016-12-19T10:55:27.910Z,5.81
2016-12-19T10:56:38.624Z,5.87
2016-12-19T10:57:49.368Z,5.83
2016-12-19T10:59:00.120Z,5.88
2016-12-19T11:00:10.834Z,5.9
2016-12-19T11:01:21.613Z,5.91
2016-12-19T11:02:32.359Z,5.9
2016-12-19T11:03:43.080Z,5.92
2016-12-19T11:04:53.821Z,5.98
2016-12-19T11:06:04.530Z,6.07
2016-12-19T11:07:15.260Z,5.92
2016-12-19T11:08:26.006Z,5.95
2016-12-19T11:09:36.715Z,5.98
2016-12-19T11:10:47.456Z,5.97
2016-12-19T11:11:58.194Z,6.02
2016-12-19T11:13:08.905Z,6.02
2016-12-19T11:14:19.637Z,6.12
2016-12-19T11:15:30.363Z,6.09
2016-12-19T11:16:41.079Z,6.07
2016-12-19T11:17:51.828Z,6.07
2016-12-19T11:19:02.578Z,6.12
2016-12-19T11:20:13.323Z,6.09
2016-12-19T11:21:24.045Z,6.01
2016-12-19T11:22:34.786Z,5.99
2016-12-19T11:23:45.858Z,6.01
2016-12-19T11:24:56.611Z,6.06
2016-12-19T11:26:07.403Z,6.09
2016-12-19T11:27:18.328Z,6.05
2016-12-19T11:28:29.065Z,6.16
2016-12-19T11:29:39.787Z,6.1
2016-12-19T11:30:50.542Z,6.15
2016-12-19T11:32:01.285Z,6.17
2016-12-19T11:33:11.997Z,6.2
2016-12-19T11:34:22.719Z,6.25
2016-12-19T11:35:33.465Z,6.31
2016-12-19T11:36:44.185Z,6.25
2016-12-19T11:37:54.940Z,6.22
2016-12-19T11:39:05.663Z,6.28
2016-12-19T11:40:16.410Z,6.19
2016-12-19T11:41:27.148Z,6.26
2016-12-19T11:42:37.898Z,6.26
2016-12-19T11:43:48.615Z,6.26
2016-12-19T11:44:59.341Z,6.29
2016-12-19T11:46:10.079Z,6.15
2016-12-19T11:47:20.809Z,6.29
2016-12-19T11:48:31.521Z,6.22
2016-12-19T11:49:42.271Z,6.22
2016-12-19T11:50:53.013Z,6.28
2016-12-19T11:52:03.771Z,6.17
2016-12-19T11:53:14.509Z,6.29
2016-12-19T11:54:25.230Z,6.28
2016-12-19T11:55:35.983Z,6.34
2016-12-19T11:56:46.725Z,6.34
2016-12-19T11:57:57.450Z,6.26
2016-12-19T11:59:08.163Z,6.22
2016-12-19T12:00:18.910Z,6.22
2016-12-19T12:01:29.653Z,6.16
2016-12-19T12:02:40.405Z,6.26
2016-12-19T12:03:51.148Z,6.19
2016-12-19T12:05:01.865Z,6.25
2016-12-19T12:06:12.590Z,6.26
2016-12-19T12:07:23.294Z,6.19
2016-12-19T12:08:34.036Z,6.19
2016-12-19T12:09:44.777Z,6.31
2016-12-19T12:10:55.498Z,6.25
2016-12-19T12:12:06.254Z,6.29
2016-12-19T12:13:16.974Z,6.34
2016-12-19T12:14:27.695Z,6.34
2016-12-19T12:15:38.432Z,6.31
2016-12-19T12:16:49.141Z,6.2
2016-12-19T12:17:59.900Z,6.28
2016-12-19T12:19:10.643Z,6.35
2016-12-19T12:20:21.371Z,6.29
2016-12-19T12:21:32.113Z,6.34
2016-12-19T12:22:42.818Z,6.31
2016-12-19T12:23:53.535Z,6.31
2016-12-19T12:25:04.261Z,6.31
2016-12-19T12:26:14.993Z,6.22
2016-12-19T12:27:25.744Z,6.2
2016-12-19T12:28:36.464Z,6.31
2016-12-19T12:29:47.193Z,6.31
2016-12-19T12:30:57.968Z,6.28
2016-12-19T12:32:08.727Z,6.25
2016-12-19T12:33:19.452Z,6.32
2016-12-19T12:34:30.200Z,6.25
2016-12-19T12:35:40.916Z,6.19
2016-12-19T12:36:51.633Z,6.28
2016-12-19T12:38:02.379Z,6.31
2016-12-19T12:39:13.113Z,6.22
2016-12-19T12:40:23.872Z,6.25
2016-12-19T12:41:34.604Z,6.22
2016-12-19T12:42:45.297Z,6.31
2016-12-19T12:43:56.046Z,6.31
2016-12-19T12:45:06.783Z,6.35
2016-12-19T12:46:17.513Z,6.32
2016-12-19T12:47:28.255Z,6.31
2016-12-19T12:48:38.970Z,6.26
2016-12-19T12:49:49.700Z,6.31
2016-12-19T12:51:00.436Z,6.35
2016-12-19T12:52:11.193Z,6.32
2016-12-19T12:53:21.929Z,6.34
2016-12-19T12:54:32.660Z,6.29
2016-12-19T12:55:43.407Z,6.28
2016-12-19T12:56:54.148Z,6.28
2016-12-19T12:58:04.872Z,6.28
2016-12-19T12:59:15.636Z,6.25
2016-12-19T13:00:26.366Z,6.36
2016-12-19T13:01:37.085Z,6.35
2016-12-19T13:02:48.122Z,6.38
2016-12-19T13:03:58.849Z,6.35
2016-12-19T13:05:09.600Z,6.38
2016-12-19T13:06:20.359Z,6.38
2016-12-19T13:07:31.087Z,6.43
2016-12-19T13:08:41.812Z,6.39
2016-12-19T13:09:52.571Z,6.47
2016-12-19T13:11:03.293Z,6.43
2016-12-19T13:12:14.042Z,6.47
2016-12-19T13:13:24.788Z,6.41
2016-12-19T13:14:35.538Z,6.47
2016-12-19T13:15:46.251Z,6.41
2016-12-19T13:16:56.956Z,6.49
2016-12-19T13:18:07.722Z,6.49
2016-12-19T13:19:18.464Z,6.47
2016-12-19T13:20:29.186Z,6.46
2016-12-19T13:21:39.920Z,6.44
2016-12-19T13:22:50.664Z,6.43
2016-12-19T13:24:01.383Z,6.39
2016-12-19T13:25:12.108Z,6.38
2016-12-19T13:26:22.848Z,6.44
2016-12-19T13:27:33.565Z,6.46
2016-12-19T13:28:44.282Z,6.39
2016-12-19T13:29:55.336Z,6.39
2016-12-19T13:31:06.082Z,6.43
2016-12-19T13:32:16.823Z,6.49
2016-12-19T13:33:27.566Z,6.47
2016-12-19T13:34:38.286Z,6.39
2016-12-19T13:35:49.043Z,6.41
2016-12-19T13:36:59.781Z,6.36
2016-12-19T13:38:10.499Z,6.39
2016-12-19T13:39:21.271Z,6.39
2016-12-19T13:40:31.991Z,6.43
2016-12-19T13:41:42.719Z,6.46
2016-12-19T13:42:53.461Z,6.36
2016-12-19T13:44:04.215Z,6.36
2016-12-19T13:45:14.940Z,6.43
2016-12-19T13:46:25.675Z,6.34
2016-12-19T13:47:38.820Z,6.36
2016-12-19T13:48:49.528Z,6.36
2016-12-19T13:50:00.266Z,6.34
2016-12-19T13:51:11.312Z,6.2
2016-12-19T13:52:22.054Z,6.28
2016-12-19T13:53:32.774Z,6.26
2016-12-19T13:54:43.492Z,6.29
2016-12-19T13:55:54.213Z,6.25
2016-12-19T13:57:04.963Z,6.22
2016-12-19T13:58:15.708Z,6.29
2016-12-19T13:59:26.452Z,6.17
2016-12-19T14:00:37.202Z,6.19
2016-12-19T14:01:47.919Z,6.17
2016-12-19T14:02:58.696Z,6.26
2016-12-19T14:04:09.721Z,6.16
2016-12-19T14:05:20.491Z,6.17
2016-12-19T14:06:31.214Z,6.2
2016-12-19T14:07:41.926Z,6.16
2016-12-19T14:08:52.657Z,6.22
2016-12-19T14:10:03.393Z,6.12
2016-12-19T14:11:14.147Z,6.06
2016-12-19T14:12:24.892Z,6.1
2016-12-19T14:13:35.606Z,6.06
2016-12-19T14:14:46.327Z,6.02
2016-12-19T14:15:57.052Z,5.91
2016-12-19T14:17:07.773Z,5.92
2016-12-19T14:18:18.502Z,5.88
2016-12-19T14:19:29.236Z,5.88
2016-12-19T14:20:39.961Z,5.88
2016-12-19T14:21:50.707Z,5.95
2016-12-19T14:23:01.425Z,5.95
2016-12-19T14:24:12.129Z,5.88
2016-12-19T14:25:22.870Z,5.84
2016-12-19T14:26:33.616Z,5.7
2016-12-19T14:27:44.333Z,5.77
2016-12-19T14:28:55.058Z,5.73
2016-12-19T14:30:05.775Z,5.73
2016-12-19T14:31:16.496Z,5.76
2016-12-19T14:32:27.225Z,5.76
2016-12-19T14:33:37.938Z,5.79
2016-12-19T14:34:48.641Z,5.79
2016-12-19T14:36:43.999Z,5.67
2016-12-19T14:37:54.729Z,5.76
2016-12-19T14:39:05.476Z,5.73
2016-12-19T14:40:16.526Z,5.61
2016-12-19T14:41:27.238Z,5.59
2016-12-19T14:42:37.980Z,5.7
2016-12-19T14:43:48.735Z,5.62
2016-12-19T14:44:59.448Z,5.65
2016-12-19T14:46:10.455Z,5.56
2016-12-19T14:47:21.192Z,5.56
2016-12-19T14:48:31.920Z,5.51
2016-12-19T14:49:42.617Z,5.56
2016-12-19T14:50:53.352Z,5.58
2016-12-19T14:52:04.108Z,5.49
2016-12-19T14:53:14.833Z,5.55
2016-12-19T14:54:25.549Z,5.58
2016-12-19T14:55:36.310Z,5.55
2016-12-19T14:56:47.018Z,5.47
2016-12-19T14:57:57.755Z,5.47
2016-12-19T14:59:08.523Z,5.49
2016-12-19T15:00:19.234Z,5.52
2016-12-19T15:01:29.970Z,5.51
2016-12-19T15:02:40.711Z,5.46
2016-12-19T15:03:51.421Z,5.46
2016-12-19T15:05:02.162Z,5.43
2016-12-19T15:06:12.886Z,5.43
2016-12-19T15:07:23.624Z,5.43
2016-12-19T15:08:34.366Z,5.38
2016-12-19T15:09:45.074Z,5.43
2016-12-19T15:10:55.784Z,5.36
2016-12-19T15:12:06.530Z,5.38
2016-12-19T15:13:17.233Z,5.33
2016-12-19T15:14:27.972Z,5.29
2016-12-19T15:15:38.750Z,5.38
2016-12-19T15:16:49.447Z,5.36
2016-12-19T15:18:00.189Z,5.41
2016-12-19T15:19:10.916Z,5.37
2016-12-19T15:20:21.655Z,5.33
2016-12-19T15:21:32.380Z,5.4
2016-12-19T15:22:43.094Z,5.37
2016-12-19T15:23:53.828Z,5.4
2016-12-19T15:25:04.563Z,5.36
2016-12-19T15:26:15.285Z,5.37
2016-12-19T15:27:26.028Z,5.36
2016-12-19T15:28:36.737Z,5.38
2016-12-19T15:29:47.470Z,5.28
2016-12-19T15:30:58.173Z,5.23
2016-12-19T15:32:08.894Z,5.29
2016-12-19T15:33:19.916Z,5.28
2016-12-19T15:34:30.641Z,5.29
2016-12-19T15:35:41.366Z,5.29
2016-12-19T15:36:52.104Z,5.28
2016-12-19T15:38:02.842Z,5.29
2016-12-19T15:39:13.571Z,5.33
2016-12-19T15:40:24.609Z,5.26
2016-12-19T15:41:35.355Z,5.25
2016-12-19T15:42:46.105Z,5.28
2016-12-19T15:43:56.805Z,5.2
2016-12-19T15:45:07.533Z,5.31
2016-12-19T15:46:18.247Z,5.33
2016-12-19T15:47:28.965Z,5.23